sensor_id;sensor_type;location;lat;lon;timestamp;P1;durP1;ratioP1;P2;durP2;ratioP2
6523;SDS011;3295;38.928;-77.052;2022-08-11T00:02:03;5.37;;;2.60;;
6523;SDS011;3295;38.928;-77.052;2022-08-11T00:04:33;4.00;;;2.50;;
6523;SDS011;3295;38.928;-77.052;2022-08-11T00:07:02;4.17;;;2.30;;
6523;SDS011;3295;38.928;-77.052;2022-08-11T00:09:30;3.90;;;2.47;;
6523;SDS011;3295;38.928;-77.052;2022-08-11T00:11:58;3.80;;;2.30;;
6523;SDS011;3295;38.928;-77.052;2022-08-11T00:14:26;4.57;;;2.53;;
6523;SDS011;3295;38.928;-77.052;2022-08-11T00:16:57;6.50;;;2.60;;
6523;SDS011;3295;38.928;-77.052;2022-08-11T00:19:25;4.43;;;2.57;;
6523;SDS011;3295;38.928;-77.052;2022-08-11T00:21:52;4.37;;;2.43;;
6523;SDS011;3295;38.928;-77.052;2022-08-11T00:24:20;5.90;;;3.10;;
6523;SDS011;3295;38.928;-77.052;2022-08-11T00:26:48;3.93;;;2.47;;
6523;SDS011;3295;38.928;-77.052;2022-08-11T00:29:16;3.40;;;2.43;;
6523;SDS011;3295;38.928;-77.052;2022-08-11T00:31:44;3.33;;;2.40;;
6523;SDS011;3295;38.928;-77.052;2022-08-11T00:34:15;5.37;;;2.60;;
6523;SDS011;3295;38.928;-77.052;2022-08-11T00:36:45;6.37;;;2.60;;
6523;SDS011;3295;38.928;-77.052;2022-08-11T00:39:13;3.30;;;2.37;;
6523;SDS011;3295;38.928;-77.052;2022-08-11T00:41:43;6.17;;;2.73;;
6523;SDS011;3295;38.928;-77.052;2022-08-11T00:44:15;3.53;;;2.30;;
6523;SDS011;3295;38.928;-77.052;2022-08-11T00:46:49;3.67;;;2.40;;
6523;SDS011;3295;38.928;-77.052;2022-08-11T00:49:27;5.93;;;2.60;;
6523;SDS011;3295;38.928;-77.052;2022-08-11T00:51:59;4.57;;;2.43;;
6523;SDS011;3295;38.928;-77.052;2022-08-11T00:54:49;4.20;;;2.37;;
6523;SDS011;3295;38.928;-77.052;2022-08-11T01:00:04;4.13;;;2.20;;
6523;SDS011;3295;38.928;-77.052;2022-08-11T01:02:44;4.83;;;2.27;;
6523;SDS011;3295;38.928;-77.052;2022-08-11T01:05:27;4.57;;;2.33;;
6523;SDS011;3295;38.928;-77.052;2022-08-11T01:13:41;3.63;;;2.00;;
6523;SDS011;3295;38.928;-77.052;2022-08-11T01:16:26;8.57;;;2.27;;
6523;SDS011;3295;38.928;-77.052;2022-08-11T01:27:22;4.63;;;2.27;;
6523;SDS011;3295;38.928;-77.052;2022-08-11T01:35:46;3.10;;;1.90;;
6523;SDS011;3295;38.928;-77.052;2022-08-11T01:47:13;2.43;;;1.63;;
6523;SDS011;3295;38.928;-77.052;2022-08-11T01:50:06;2.20;;;1.53;;
6523;SDS011;3295;38.928;-77.052;2022-08-11T01:52:39;4.77;;;1.90;;
6523;SDS011;3295;38.928;-77.052;2022-08-11T01:55:11;3.43;;;1.80;;
6523;SDS011;3295;38.928;-77.052;2022-08-11T01:57:41;2.00;;;1.50;;
6523;SDS011;3295;38.928;-77.052;2022-08-11T02:00:11;3.43;;;2.00;;
6523;SDS011;3295;38.928;-77.052;2022-08-11T02:02:44;2.40;;;1.80;;
6523;SDS011;3295;38.928;-77.052;2022-08-11T02:08:04;3.60;;;2.00;;
6523;SDS011;3295;38.928;-77.052;2022-08-11T02:10:38;4.97;;;2.03;;
6523;SDS011;3295;38.928;-77.052;2022-08-11T02:13:31;4.57;;;1.93;;
6523;SDS011;3295;38.928;-77.052;2022-08-11T02:16:03;3.63;;;2.07;;
6523;SDS011;3295;38.928;-77.052;2022-08-11T02:18:35;3.63;;;2.03;;
6523;SDS011;3295;38.928;-77.052;2022-08-11T02:21:18;3.07;;;1.80;;
6523;SDS011;3295;38.928;-77.052;2022-08-11T02:24:10;4.37;;;1.80;;
6523;SDS011;3295;38.928;-77.052;2022-08-11T02:26:41;3.10;;;1.70;;
6523;SDS011;3295;38.928;-77.052;2022-08-11T02:29:12;3.43;;;2.00;;
6523;SDS011;3295;38.928;-77.052;2022-08-11T02:31:45;2.40;;;1.47;;
6523;SDS011;3295;38.928;-77.052;2022-08-11T02:34:37;3.03;;;1.90;;
6523;SDS011;3295;38.928;-77.052;2022-08-11T02:37:10;2.63;;;1.60;;
6523;SDS011;3295;38.928;-77.052;2022-08-11T02:39:45;7.60;;;1.77;;
6523;SDS011;3295;38.928;-77.052;2022-08-11T02:42:16;3.17;;;1.87;;
6523;SDS011;3295;38.928;-77.052;2022-08-11T02:44:56;2.60;;;1.80;;
6523;SDS011;3295;38.928;-77.052;2022-08-11T02:47:30;3.63;;;1.70;;
6523;SDS011;3295;38.928;-77.052;2022-08-11T02:50:04;3.97;;;2.13;;
6523;SDS011;3295;38.928;-77.052;2022-08-11T02:52:40;2.37;;;1.67;;
6523;SDS011;3295;38.928;-77.052;2022-08-11T02:55:17;4.43;;;2.10;;
6523;SDS011;3295;38.928;-77.052;2022-08-11T02:57:48;2.00;;;1.70;;
6523;SDS011;3295;38.928;-77.052;2022-08-11T03:00:16;3.97;;;1.80;;
6523;SDS011;3295;38.928;-77.052;2022-08-11T03:02:53;2.83;;;1.90;;
6523;SDS011;3295;38.928;-77.052;2022-08-11T03:05:44;2.63;;;1.73;;
6523;SDS011;3295;38.928;-77.052;2022-08-11T03:08:17;2.57;;;1.70;;
6523;SDS011;3295;38.928;-77.052;2022-08-11T03:10:53;2.37;;;1.60;;
6523;SDS011;3295;38.928;-77.052;2022-08-11T03:13:34;3.03;;;1.70;;
6523;SDS011;3295;38.928;-77.052;2022-08-11T03:16:24;4.27;;;1.80;;
6523;SDS011;3295;38.928;-77.052;2022-08-11T03:19:13;2.40;;;1.57;;
6523;SDS011;3295;38.928;-77.052;2022-08-11T03:21:46;4.40;;;2.00;;
6523;SDS011;3295;38.928;-77.052;2022-08-11T03:24:16;2.17;;;1.53;;
6523;SDS011;3295;38.928;-77.052;2022-08-11T03:26:51;6.23;;;1.80;;
6523;SDS011;3295;38.928;-77.052;2022-08-11T03:29:29;2.70;;;1.70;;
6523;SDS011;3295;38.928;-77.052;2022-08-11T03:32:00;2.70;;;1.87;;
6523;SDS011;3295;38.928;-77.052;2022-08-11T03:34:29;3.43;;;1.83;;
6523;SDS011;3295;38.928;-77.052;2022-08-11T03:40:03;3.83;;;1.87;;
6523;SDS011;3295;38.928;-77.052;2022-08-11T03:42:38;5.60;;;2.10;;
6523;SDS011;3295;38.928;-77.052;2022-08-11T03:45:14;2.70;;;1.80;;
6523;SDS011;3295;38.928;-77.052;2022-08-11T03:47:48;3.60;;;1.77;;
6523;SDS011;3295;38.928;-77.052;2022-08-11T03:50:23;3.93;;;2.20;;
6523;SDS011;3295;38.928;-77.052;2022-08-11T03:52:57;2.70;;;1.87;;
6523;SDS011;3295;38.928;-77.052;2022-08-11T03:55:31;2.20;;;1.57;;
6523;SDS011;3295;38.928;-77.052;2022-08-11T04:04:11;1.83;;;1.50;;
6523;SDS011;3295;38.928;-77.052;2022-08-11T04:06:56;3.40;;;1.70;;
6523;SDS011;3295;38.928;-77.052;2022-08-11T04:12:20;2.00;;;1.50;;
6523;SDS011;3295;38.928;-77.052;2022-08-11T04:15:01;3.43;;;1.70;;
6523;SDS011;3295;38.928;-77.052;2022-08-11T04:23:21;2.43;;;1.50;;
6523;SDS011;3295;38.928;-77.052;2022-08-11T04:28:41;2.83;;;1.47;;
6523;SDS011;3295;38.928;-77.052;2022-08-11T04:31:22;2.17;;;1.70;;
6523;SDS011;3295;38.928;-77.052;2022-08-11T04:33:58;2.17;;;1.80;;
6523;SDS011;3295;38.928;-77.052;2022-08-11T04:36:40;2.43;;;1.80;;
6523;SDS011;3295;38.928;-77.052;2022-08-11T04:39:32;2.67;;;1.60;;
6523;SDS011;3295;38.928;-77.052;2022-08-11T04:42:07;2.83;;;1.40;;
6523;SDS011;3295;38.928;-77.052;2022-08-11T04:47:54;2.83;;;1.73;;
6523;SDS011;3295;38.928;-77.052;2022-08-11T04:50:53;2.87;;;1.50;;
6523;SDS011;3295;38.928;-77.052;2022-08-11T04:53:42;3.97;;;1.40;;
6523;SDS011;3295;38.928;-77.052;2022-08-11T04:56:30;1.70;;;1.33;;
6523;SDS011;3295;38.928;-77.052;2022-08-11T04:59:26;2.97;;;1.60;;
6523;SDS011;3295;38.928;-77.052;2022-08-11T05:02:38;4.30;;;1.80;;
6523;SDS011;3295;38.928;-77.052;2022-08-11T05:05:14;1.83;;;1.53;;
6523;SDS011;3295;38.928;-77.052;2022-08-11T05:08:02;2.10;;;1.53;;
6523;SDS011;3295;38.928;-77.052;2022-08-11T05:10:42;2.03;;;1.50;;
6523;SDS011;3295;38.928;-77.052;2022-08-11T05:13:19;5.23;;;1.70;;
6523;SDS011;3295;38.928;-77.052;2022-08-11T05:16:07;2.07;;;1.67;;
6523;SDS011;3295;38.928;-77.052;2022-08-11T05:18:52;4.83;;;1.87;;
6523;SDS011;3295;38.928;-77.052;2022-08-11T05:21:38;2.40;;;1.60;;
6523;SDS011;3295;38.928;-77.052;2022-08-11T05:24:23;2.93;;;1.70;;
6523;SDS011;3295;38.928;-77.052;2022-08-11T05:27:08;2.03;;;1.60;;
6523;SDS011;3295;38.928;-77.052;2022-08-11T05:29:56;2.70;;;1.67;;
6523;SDS011;3295;38.928;-77.052;2022-08-11T05:32:44;4.27;;;1.70;;
6523;SDS011;3295;38.928;-77.052;2022-08-11T05:35:30;6.60;;;1.77;;
6523;SDS011;3295;38.928;-77.052;2022-08-11T05:37:58;5.30;;;2.00;;
6523;SDS011;3295;38.928;-77.052;2022-08-11T05:40:48;3.23;;;1.93;;
6523;SDS011;3295;38.928;-77.052;2022-08-11T05:43:33;4.93;;;1.80;;
6523;SDS011;3295;38.928;-77.052;2022-08-11T05:46:24;1.80;;;1.60;;
6523;SDS011;3295;38.928;-77.052;2022-08-11T05:49:10;5.23;;;1.83;;
6523;SDS011;3295;38.928;-77.052;2022-08-11T05:51:54;4.53;;;2.57;;
6523;SDS011;3295;38.928;-77.052;2022-08-11T05:54:39;4.40;;;1.50;;
6523;SDS011;3295;38.928;-77.052;2022-08-11T05:57:27;2.60;;;1.93;;
6523;SDS011;3295;38.928;-77.052;2022-08-11T05:59:58;4.20;;;1.83;;
6523;SDS011;3295;38.928;-77.052;2022-08-11T06:02:28;3.07;;;1.90;;
6523;SDS011;3295;38.928;-77.052;2022-08-11T06:04:55;3.07;;;2.20;;
6523;SDS011;3295;38.928;-77.052;2022-08-11T06:07:25;3.27;;;2.03;;
6523;SDS011;3295;38.928;-77.052;2022-08-11T06:09:53;3.57;;;2.03;;
6523;SDS011;3295;38.928;-77.052;2022-08-11T06:12:21;6.87;;;2.30;;
6523;SDS011;3295;38.928;-77.052;2022-08-11T06:14:49;6.10;;;2.20;;
6523;SDS011;3295;38.928;-77.052;2022-08-11T06:17:20;3.03;;;2.10;;
6523;SDS011;3295;38.928;-77.052;2022-08-11T06:19:50;3.00;;;2.10;;
6523;SDS011;3295;38.928;-77.052;2022-08-11T06:22:21;2.37;;;1.97;;
6523;SDS011;3295;38.928;-77.052;2022-08-11T06:24:50;3.67;;;2.50;;
6523;SDS011;3295;38.928;-77.052;2022-08-11T06:27:19;3.03;;;1.90;;
6523;SDS011;3295;38.928;-77.052;2022-08-11T06:29:48;7.73;;;2.20;;
6523;SDS011;3295;38.928;-77.052;2022-08-11T06:32:15;3.23;;;2.10;;
6523;SDS011;3295;38.928;-77.052;2022-08-11T06:37:34;3.00;;;2.27;;
6523;SDS011;3295;38.928;-77.052;2022-08-11T06:40:07;2.90;;;1.93;;
6523;SDS011;3295;38.928;-77.052;2022-08-11T06:42:42;2.50;;;1.80;;
6523;SDS011;3295;38.928;-77.052;2022-08-11T06:45:23;3.17;;;1.90;;
6523;SDS011;3295;38.928;-77.052;2022-08-11T06:47:52;5.60;;;2.17;;
6523;SDS011;3295;38.928;-77.052;2022-08-11T06:50:21;5.83;;;1.93;;
6523;SDS011;3295;38.928;-77.052;2022-08-11T06:53:21;3.57;;;2.00;;
6523;SDS011;3295;38.928;-77.052;2022-08-11T06:55:49;3.40;;;2.27;;
6523;SDS011;3295;38.928;-77.052;2022-08-11T06:58:34;3.47;;;2.13;;
6523;SDS011;3295;38.928;-77.052;2022-08-11T07:01:22;4.37;;;1.87;;
6523;SDS011;3295;38.928;-77.052;2022-08-11T07:03:55;3.00;;;2.00;;
6523;SDS011;3295;38.928;-77.052;2022-08-11T07:06:27;4.37;;;2.10;;
6523;SDS011;3295;38.928;-77.052;2022-08-11T07:12:18;5.87;;;2.43;;
6523;SDS011;3295;38.928;-77.052;2022-08-11T07:15:08;4.13;;;2.10;;
6523;SDS011;3295;38.928;-77.052;2022-08-11T07:17:53;3.77;;;2.10;;
6523;SDS011;3295;38.928;-77.052;2022-08-11T07:20:37;4.03;;;2.00;;
6523;SDS011;3295;38.928;-77.052;2022-08-11T07:23:37;4.23;;;2.20;;
6523;SDS011;3295;38.928;-77.052;2022-08-11T07:26:22;2.30;;;2.00;;
6523;SDS011;3295;38.928;-77.052;2022-08-11T07:29:08;2.87;;;1.97;;
6523;SDS011;3295;38.928;-77.052;2022-08-11T07:31:37;3.23;;;1.97;;
6523;SDS011;3295;38.928;-77.052;2022-08-11T07:34:14;3.50;;;2.00;;
6523;SDS011;3295;38.928;-77.052;2022-08-11T07:36:45;3.60;;;2.20;;
6523;SDS011;3295;38.928;-77.052;2022-08-11T07:39:14;4.67;;;1.90;;
6523;SDS011;3295;38.928;-77.052;2022-08-11T07:41:44;2.90;;;2.00;;
6523;SDS011;3295;38.928;-77.052;2022-08-11T07:44:14;2.90;;;1.97;;
6523;SDS011;3295;38.928;-77.052;2022-08-11T07:46:43;3.13;;;2.20;;
6523;SDS011;3295;38.928;-77.052;2022-08-11T07:49:28;4.10;;;2.20;;
6523;SDS011;3295;38.928;-77.052;2022-08-11T07:52:13;4.07;;;2.13;;
6523;SDS011;3295;38.928;-77.052;2022-08-11T07:54:53;4.10;;;2.10;;
6523;SDS011;3295;38.928;-77.052;2022-08-11T07:57:21;3.60;;;2.23;;
6523;SDS011;3295;38.928;-77.052;2022-08-11T08:00:09;2.33;;;1.80;;
6523;SDS011;3295;38.928;-77.052;2022-08-11T08:02:53;2.83;;;2.07;;
6523;SDS011;3295;38.928;-77.052;2022-08-11T08:05:37;3.70;;;2.00;;
6523;SDS011;3295;38.928;-77.052;2022-08-11T08:08:22;6.60;;;2.10;;
6523;SDS011;3295;38.928;-77.052;2022-08-11T08:11:07;2.87;;;2.03;;
6523;SDS011;3295;38.928;-77.052;2022-08-11T08:13:52;2.77;;;2.07;;
6523;SDS011;3295;38.928;-77.052;2022-08-11T08:16:38;2.93;;;1.87;;
6523;SDS011;3295;38.928;-77.052;2022-08-11T08:19:22;3.10;;;2.10;;
6523;SDS011;3295;38.928;-77.052;2022-08-11T08:21:50;4.87;;;2.20;;
6523;SDS011;3295;38.928;-77.052;2022-08-11T08:24:18;5.63;;;2.47;;
6523;SDS011;3295;38.928;-77.052;2022-08-11T08:26:46;4.40;;;2.20;;
6523;SDS011;3295;38.928;-77.052;2022-08-11T08:29:28;4.23;;;2.20;;
6523;SDS011;3295;38.928;-77.052;2022-08-11T08:32:14;3.30;;;2.30;;
6523;SDS011;3295;38.928;-77.052;2022-08-11T08:34:42;3.03;;;2.33;;
6523;SDS011;3295;38.928;-77.052;2022-08-11T08:37:09;3.80;;;2.20;;
6523;SDS011;3295;38.928;-77.052;2022-08-11T08:39:37;5.33;;;2.40;;
6523;SDS011;3295;38.928;-77.052;2022-08-11T08:42:06;5.97;;;2.57;;
6523;SDS011;3295;38.928;-77.052;2022-08-11T08:44:34;3.47;;;2.20;;
6523;SDS011;3295;38.928;-77.052;2022-08-11T08:47:02;3.70;;;2.17;;
6523;SDS011;3295;38.928;-77.052;2022-08-11T08:49:32;6.60;;;2.70;;
6523;SDS011;3295;38.928;-77.052;2022-08-11T08:52:00;3.50;;;2.40;;
6523;SDS011;3295;38.928;-77.052;2022-08-11T08:54:29;4.00;;;2.20;;
6523;SDS011;3295;38.928;-77.052;2022-08-11T08:56:58;3.90;;;2.30;;
6523;SDS011;3295;38.928;-77.052;2022-08-11T08:59:29;6.27;;;3.23;;
6523;SDS011;3295;38.928;-77.052;2022-08-11T09:01:59;4.60;;;2.67;;
6523;SDS011;3295;38.928;-77.052;2022-08-11T09:04:27;4.50;;;2.70;;
6523;SDS011;3295;38.928;-77.052;2022-08-11T09:06:57;5.20;;;2.60;;
6523;SDS011;3295;38.928;-77.052;2022-08-11T09:09:24;3.87;;;2.50;;
6523;SDS011;3295;38.928;-77.052;2022-08-11T09:11:52;3.77;;;2.57;;
6523;SDS011;3295;38.928;-77.052;2022-08-11T09:14:20;3.53;;;2.60;;
6523;SDS011;3295;38.928;-77.052;2022-08-11T09:16:48;3.33;;;2.17;;
6523;SDS011;3295;38.928;-77.052;2022-08-11T09:19:17;3.27;;;2.30;;
6523;SDS011;3295;38.928;-77.052;2022-08-11T09:21:45;5.23;;;2.63;;
6523;SDS011;3295;38.928;-77.052;2022-08-11T09:24:37;3.57;;;2.77;;
6523;SDS011;3295;38.928;-77.052;2022-08-11T09:27:34;4.73;;;3.00;;
6523;SDS011;3295;38.928;-77.052;2022-08-11T09:30:03;4.67;;;2.67;;
6523;SDS011;3295;38.928;-77.052;2022-08-11T09:32:30;6.80;;;3.00;;
6523;SDS011;3295;38.928;-77.052;2022-08-11T09:34:58;3.83;;;2.67;;
6523;SDS011;3295;38.928;-77.052;2022-08-11T09:37:27;3.70;;;2.50;;
6523;SDS011;3295;38.928;-77.052;2022-08-11T09:40:14;5.53;;;2.77;;
6523;SDS011;3295;38.928;-77.052;2022-08-11T09:42:58;7.10;;;2.37;;
6523;SDS011;3295;38.928;-77.052;2022-08-11T09:45:43;3.77;;;2.63;;
6523;SDS011;3295;38.928;-77.052;2022-08-11T09:48:15;5.30;;;2.97;;
6523;SDS011;3295;38.928;-77.052;2022-08-11T09:50:44;5.10;;;2.83;;
6523;SDS011;3295;38.928;-77.052;2022-08-11T09:53:11;5.90;;;2.87;;
6523;SDS011;3295;38.928;-77.052;2022-08-11T09:55:43;5.23;;;2.60;;
6523;SDS011;3295;38.928;-77.052;2022-08-11T09:58:11;5.40;;;2.83;;
6523;SDS011;3295;38.928;-77.052;2022-08-11T10:00:38;3.30;;;2.57;;
6523;SDS011;3295;38.928;-77.052;2022-08-11T10:03:05;4.20;;;3.03;;
6523;SDS011;3295;38.928;-77.052;2022-08-11T10:05:33;4.33;;;2.33;;
6523;SDS011;3295;38.928;-77.052;2022-08-11T10:08:18;3.20;;;2.43;;
6523;SDS011;3295;38.928;-77.052;2022-08-11T10:10:51;5.27;;;2.43;;
6523;SDS011;3295;38.928;-77.052;2022-08-11T10:13:19;3.93;;;2.80;;
6523;SDS011;3295;38.928;-77.052;2022-08-11T10:15:52;5.40;;;2.50;;
6523;SDS011;3295;38.928;-77.052;2022-08-11T10:18:18;4.87;;;2.80;;
6523;SDS011;3295;38.928;-77.052;2022-08-11T10:21:14;3.83;;;2.53;;
6523;SDS011;3295;38.928;-77.052;2022-08-11T10:23:43;7.93;;;2.80;;
6523;SDS011;3295;38.928;-77.052;2022-08-11T10:26:29;6.60;;;2.83;;
6523;SDS011;3295;38.928;-77.052;2022-08-11T10:29:14;9.13;;;3.00;;
6523;SDS011;3295;38.928;-77.052;2022-08-11T10:31:58;3.80;;;2.60;;
6523;SDS011;3295;38.928;-77.052;2022-08-11T10:34:44;5.67;;;2.57;;
6523;SDS011;3295;38.928;-77.052;2022-08-11T10:37:12;5.30;;;2.77;;
6523;SDS011;3295;38.928;-77.052;2022-08-11T10:39:41;4.03;;;2.70;;
6523;SDS011;3295;38.928;-77.052;2022-08-11T10:42:10;6.63;;;2.90;;
6523;SDS011;3295;38.928;-77.052;2022-08-11T10:44:56;3.43;;;2.60;;
6523;SDS011;3295;38.928;-77.052;2022-08-11T10:47:23;5.37;;;2.70;;
6523;SDS011;3295;38.928;-77.052;2022-08-11T10:50:06;3.27;;;2.40;;
6523;SDS011;3295;38.928;-77.052;2022-08-11T10:52:50;4.50;;;2.60;;
6523;SDS011;3295;38.928;-77.052;2022-08-11T10:55:34;4.37;;;2.50;;
6523;SDS011;3295;38.928;-77.052;2022-08-11T10:58:21;4.53;;;2.80;;
6523;SDS011;3295;38.928;-77.052;2022-08-11T11:01:06;3.80;;;2.73;;
6523;SDS011;3295;38.928;-77.052;2022-08-11T11:03:34;8.07;;;2.57;;
6523;SDS011;3295;38.928;-77.052;2022-08-11T11:06:03;4.80;;;2.90;;
6523;SDS011;3295;38.928;-77.052;2022-08-11T11:08:32;4.10;;;2.67;;
6523;SDS011;3295;38.928;-77.052;2022-08-11T11:11:20;4.77;;;2.80;;
6523;SDS011;3295;38.928;-77.052;2022-08-11T11:14:10;4.00;;;2.70;;
6523;SDS011;3295;38.928;-77.052;2022-08-11T11:16:55;3.10;;;2.60;;
6523;SDS011;3295;38.928;-77.052;2022-08-11T11:19:40;5.83;;;2.73;;
6523;SDS011;3295;38.928;-77.052;2022-08-11T11:22:08;5.50;;;3.00;;
6523;SDS011;3295;38.928;-77.052;2022-08-11T11:24:52;5.67;;;2.60;;
6523;SDS011;3295;38.928;-77.052;2022-08-11T11:27:25;3.77;;;2.63;;
6523;SDS011;3295;38.928;-77.052;2022-08-11T11:29:58;4.63;;;2.50;;
6523;SDS011;3295;38.928;-77.052;2022-08-11T11:32:29;6.10;;;2.97;;
6523;SDS011;3295;38.928;-77.052;2022-08-11T11:35:10;4.03;;;2.90;;
6523;SDS011;3295;38.928;-77.052;2022-08-11T11:37:39;8.07;;;2.70;;
6523;SDS011;3295;38.928;-77.052;2022-08-11T11:40:07;3.67;;;2.70;;
6523;SDS011;3295;38.928;-77.052;2022-08-11T11:42:36;3.80;;;2.63;;
6523;SDS011;3295;38.928;-77.052;2022-08-11T11:45:05;5.13;;;2.87;;
6523;SDS011;3295;38.928;-77.052;2022-08-11T11:47:34;6.30;;;3.00;;
6523;SDS011;3295;38.928;-77.052;2022-08-11T11:50:02;5.40;;;3.23;;
6523;SDS011;3295;38.928;-77.052;2022-08-11T11:52:30;6.37;;;3.33;;
6523;SDS011;3295;38.928;-77.052;2022-08-11T11:54:57;4.60;;;3.07;;
6523;SDS011;3295;38.928;-77.052;2022-08-11T11:57:25;5.23;;;3.30;;
6523;SDS011;3295;38.928;-77.052;2022-08-11T12:00:12;4.73;;;3.10;;
6523;SDS011;3295;38.928;-77.052;2022-08-11T12:02:57;4.83;;;3.07;;
6523;SDS011;3295;38.928;-77.052;2022-08-11T12:05:24;5.87;;;2.77;;
6523;SDS011;3295;38.928;-77.052;2022-08-11T12:07:52;5.10;;;2.67;;
6523;SDS011;3295;38.928;-77.052;2022-08-11T12:10:42;5.43;;;3.00;;
6523;SDS011;3295;38.928;-77.052;2022-08-11T12:13:10;5.70;;;3.40;;
6523;SDS011;3295;38.928;-77.052;2022-08-11T12:15:56;5.10;;;3.00;;
6523;SDS011;3295;38.928;-77.052;2022-08-11T12:18:29;4.23;;;2.90;;
6523;SDS011;3295;38.928;-77.052;2022-08-11T12:20:57;4.00;;;3.00;;
6523;SDS011;3295;38.928;-77.052;2022-08-11T12:23:25;4.07;;;3.07;;
6523;SDS011;3295;38.928;-77.052;2022-08-11T12:26:10;4.27;;;2.70;;
6523;SDS011;3295;38.928;-77.052;2022-08-11T12:28:53;5.43;;;3.00;;
6523;SDS011;3295;38.928;-77.052;2022-08-11T12:31:24;3.80;;;2.80;;
6523;SDS011;3295;38.928;-77.052;2022-08-11T12:33:51;4.07;;;3.13;;
6523;SDS011;3295;38.928;-77.052;2022-08-11T12:36:20;6.10;;;3.40;;
6523;SDS011;3295;38.928;-77.052;2022-08-11T12:38:48;6.67;;;3.27;;
6523;SDS011;3295;38.928;-77.052;2022-08-11T12:41:16;7.13;;;3.13;;
6523;SDS011;3295;38.928;-77.052;2022-08-11T12:44:00;4.63;;;3.27;;
6523;SDS011;3295;38.928;-77.052;2022-08-11T12:46:46;4.83;;;3.20;;
6523;SDS011;3295;38.928;-77.052;2022-08-11T12:49:16;4.33;;;2.83;;
6523;SDS011;3295;38.928;-77.052;2022-08-11T12:52:01;5.23;;;3.30;;
6523;SDS011;3295;38.928;-77.052;2022-08-11T12:54:31;4.73;;;3.37;;
6523;SDS011;3295;38.928;-77.052;2022-08-11T12:57:00;5.60;;;3.43;;
6523;SDS011;3295;38.928;-77.052;2022-08-11T12:59:45;5.47;;;3.50;;
6523;SDS011;3295;38.928;-77.052;2022-08-11T13:02:31;5.43;;;3.23;;
6523;SDS011;3295;38.928;-77.052;2022-08-11T13:05:16;7.90;;;3.17;;
6523;SDS011;3295;38.928;-77.052;2022-08-11T13:07:44;6.27;;;3.57;;
6523;SDS011;3295;38.928;-77.052;2022-08-11T13:10:13;4.90;;;3.27;;
6523;SDS011;3295;38.928;-77.052;2022-08-11T13:13:00;5.37;;;3.63;;
6523;SDS011;3295;38.928;-77.052;2022-08-11T13:15:27;6.77;;;3.60;;
6523;SDS011;3295;38.928;-77.052;2022-08-11T13:17:57;5.13;;;3.57;;
6523;SDS011;3295;38.928;-77.052;2022-08-11T13:20:25;6.10;;;3.30;;
6523;SDS011;3295;38.928;-77.052;2022-08-11T13:22:54;5.97;;;3.80;;
6523;SDS011;3295;38.928;-77.052;2022-08-11T13:25:22;6.43;;;3.20;;
6523;SDS011;3295;38.928;-77.052;2022-08-11T13:27:51;5.30;;;3.50;;
6523;SDS011;3295;38.928;-77.052;2022-08-11T13:30:18;4.47;;;3.40;;
6523;SDS011;3295;38.928;-77.052;2022-08-11T13:33:07;5.40;;;3.30;;
6523;SDS011;3295;38.928;-77.052;2022-08-11T13:35:35;4.33;;;3.47;;
6523;SDS011;3295;38.928;-77.052;2022-08-11T13:38:03;4.77;;;3.47;;
6523;SDS011;3295;38.928;-77.052;2022-08-11T13:40:31;5.13;;;3.63;;
6523;SDS011;3295;38.928;-77.052;2022-08-11T13:42:59;5.07;;;3.70;;
6523;SDS011;3295;38.928;-77.052;2022-08-11T13:45:28;6.47;;;3.77;;
6523;SDS011;3295;38.928;-77.052;2022-08-11T13:47:56;6.67;;;3.60;;
6523;SDS011;3295;38.928;-77.052;2022-08-11T13:50:25;6.87;;;3.53;;
6523;SDS011;3295;38.928;-77.052;2022-08-11T13:53:14;5.93;;;3.90;;
6523;SDS011;3295;38.928;-77.052;2022-08-11T13:55:42;6.07;;;4.07;;
6523;SDS011;3295;38.928;-77.052;2022-08-11T13:58:10;6.40;;;3.60;;
6523;SDS011;3295;38.928;-77.052;2022-08-11T14:00:38;7.17;;;4.10;;
6523;SDS011;3295;38.928;-77.052;2022-08-11T14:03:07;6.20;;;4.20;;
6523;SDS011;3295;38.928;-77.052;2022-08-11T14:05:38;5.53;;;3.70;;
6523;SDS011;3295;38.928;-77.052;2022-08-11T14:08:09;5.40;;;3.90;;
6523;SDS011;3295;38.928;-77.052;2022-08-11T14:10:37;5.60;;;3.60;;
6523;SDS011;3295;38.928;-77.052;2022-08-11T14:13:06;4.83;;;3.60;;
6523;SDS011;3295;38.928;-77.052;2022-08-11T14:15:51;5.00;;;3.37;;
6523;SDS011;3295;38.928;-77.052;2022-08-11T14:18:19;5.37;;;3.70;;
6523;SDS011;3295;38.928;-77.052;2022-08-11T14:20:51;8.37;;;3.83;;
6523;SDS011;3295;38.928;-77.052;2022-08-11T14:23:36;6.57;;;3.87;;
6523;SDS011;3295;38.928;-77.052;2022-08-11T14:26:04;5.20;;;3.73;;
6523;SDS011;3295;38.928;-77.052;2022-08-11T14:28:51;5.20;;;3.57;;
6523;SDS011;3295;38.928;-77.052;2022-08-11T14:31:19;5.20;;;4.00;;
6523;SDS011;3295;38.928;-77.052;2022-08-11T14:33:47;5.30;;;4.03;;
6523;SDS011;3295;38.928;-77.052;2022-08-11T14:36:16;6.60;;;4.60;;
6523;SDS011;3295;38.928;-77.052;2022-08-11T14:38:44;7.63;;;4.17;;
6523;SDS011;3295;38.928;-77.052;2022-08-11T14:41:12;5.03;;;3.83;;
6523;SDS011;3295;38.928;-77.052;2022-08-11T14:43:57;7.60;;;4.27;;
6523;SDS011;3295;38.928;-77.052;2022-08-11T14:46:41;4.87;;;3.70;;
6523;SDS011;3295;38.928;-77.052;2022-08-11T14:49:27;5.40;;;3.60;;
6523;SDS011;3295;38.928;-77.052;2022-08-11T14:51:56;5.73;;;3.80;;
6523;SDS011;3295;38.928;-77.052;2022-08-11T14:54:23;6.63;;;4.23;;
6523;SDS011;3295;38.928;-77.052;2022-08-11T14:57:08;6.10;;;4.30;;
6523;SDS011;3295;38.928;-77.052;2022-08-11T14:59:36;5.97;;;4.20;;
6523;SDS011;3295;38.928;-77.052;2022-08-11T15:02:04;5.47;;;3.80;;
6523;SDS011;3295;38.928;-77.052;2022-08-11T15:04:48;5.20;;;4.10;;
6523;SDS011;3295;38.928;-77.052;2022-08-11T15:07:17;5.20;;;3.83;;
6523;SDS011;3295;38.928;-77.052;2022-08-11T15:09:54;7.63;;;4.10;;
6523;SDS011;3295;38.928;-77.052;2022-08-11T15:12:21;6.80;;;4.07;;
6523;SDS011;3295;38.928;-77.052;2022-08-11T15:14:49;8.43;;;3.93;;
6523;SDS011;3295;38.928;-77.052;2022-08-11T15:17:33;7.20;;;3.90;;
6523;SDS011;3295;38.928;-77.052;2022-08-11T15:20:01;7.77;;;3.40;;
6523;SDS011;3295;38.928;-77.052;2022-08-11T15:22:47;6.67;;;3.40;;
6523;SDS011;3295;38.928;-77.052;2022-08-11T15:25:32;6.10;;;3.87;;
6523;SDS011;3295;38.928;-77.052;2022-08-11T15:28:01;6.80;;;4.27;;
6523;SDS011;3295;38.928;-77.052;2022-08-11T15:30:46;4.20;;;2.97;;
6523;SDS011;3295;38.928;-77.052;2022-08-11T15:33:32;4.77;;;3.63;;
6523;SDS011;3295;38.928;-77.052;2022-08-11T15:36:18;3.90;;;3.00;;
6523;SDS011;3295;38.928;-77.052;2022-08-11T15:39:05;4.13;;;3.20;;
6523;SDS011;3295;38.928;-77.052;2022-08-11T15:41:38;4.70;;;3.50;;
6523;SDS011;3295;38.928;-77.052;2022-08-11T15:44:23;3.77;;;3.07;;
6523;SDS011;3295;38.928;-77.052;2022-08-11T15:47:19;3.87;;;3.07;;
6523;SDS011;3295;38.928;-77.052;2022-08-11T15:49:50;4.40;;;3.00;;
6523;SDS011;3295;38.928;-77.052;2022-08-11T15:52:20;4.17;;;3.07;;
6523;SDS011;3295;38.928;-77.052;2022-08-11T15:54:50;3.20;;;2.90;;
6523;SDS011;3295;38.928;-77.052;2022-08-11T15:57:17;3.78;;;2.95;;
6523;SDS011;3295;38.928;-77.052;2022-08-11T15:59:59;3.80;;;3.13;;
6523;SDS011;3295;38.928;-77.052;2022-08-11T16:02:45;3.83;;;2.83;;
6523;SDS011;3295;38.928;-77.052;2022-08-11T16:05:31;4.47;;;3.07;;
6523;SDS011;3295;38.928;-77.052;2022-08-11T16:07:59;4.87;;;3.07;;
6523;SDS011;3295;38.928;-77.052;2022-08-11T16:10:28;3.73;;;2.87;;
6523;SDS011;3295;38.928;-77.052;2022-08-11T16:12:56;3.73;;;2.87;;
6523;SDS011;3295;38.928;-77.052;2022-08-11T16:15:44;4.17;;;3.20;;
6523;SDS011;3295;38.928;-77.052;2022-08-11T16:18:30;5.23;;;3.10;;
6523;SDS011;3295;38.928;-77.052;2022-08-11T16:21:06;4.10;;;3.17;;
6523;SDS011;3295;38.928;-77.052;2022-08-11T16:23:34;3.33;;;2.77;;
6523;SDS011;3295;38.928;-77.052;2022-08-11T16:26:04;4.35;;;3.22;;
6523;SDS011;3295;38.928;-77.052;2022-08-11T16:28:32;4.27;;;3.30;;
6523;SDS011;3295;38.928;-77.052;2022-08-11T16:31:00;3.75;;;2.72;;
6523;SDS011;3295;38.928;-77.052;2022-08-11T16:33:28;4.57;;;2.95;;
6523;SDS011;3295;38.928;-77.052;2022-08-11T16:35:56;4.68;;;3.10;;
6523;SDS011;3295;38.928;-77.052;2022-08-11T16:38:40;4.32;;;3.15;;
6523;SDS011;3295;38.928;-77.052;2022-08-11T16:41:13;3.42;;;2.95;;
6523;SDS011;3295;38.928;-77.052;2022-08-11T16:44:01;4.53;;;3.47;;